Aviation Digital Data Service (ADDS)

Output produced by METARs form (1147 UTC 24 May 2016)
found at http://aviationweather.gov/adds/metars/
 
KBPT 241125Z 2412/2512 16007KT P6SM SCT020 SCT250 
     FM241500 16012G18KT P6SM SCT035 BKN250 
     FM250200 15010KT P6SM BKN015